CG Hudson — NCWX — position and weather

sailwx.info

Track history (hours):
 
Tides and Currents Weather Stations Pressure Air Temp Water Temp Dewpoint Dewpoint Depression Visibility Wind Speed Wind Dir Waves Ship Positions

CG Hudson

Last reported at 2017-Nov-16 18:04 UTC. Time now 2017-Nov-22 15:06 UTC.
Position N 25°46' W 080°09'.

Length 48 m; draft 2 m.

Type: Law enforcement. MMSI: 366999791.

Date/timePositionNaut miles runAvg speedWind from/ knotsBaromVisibWave heightAir tempDewpointWater temp
2017-Nov-16 18:04N 25°46' W 080°09'0 0.0
2017-Nov-16 18:00N 25°46' W 080°09'2 4.6
2017-Nov-16 17:30N 25°47' W 080°11'4 7.3
2017-Nov-16 17:00N 25°51' W 080°10'3 6.2
2017-Nov-16 16:30N 25°54' W 080°08'0 0.0
2017-Nov-16 16:00N 25°54' W 080°08'0 0.0
2017-Nov-16 15:30N 25°54' W 080°08'2 4.0
2017-Nov-16 15:00N 25°56' W 080°08'4 7.2
2017-Nov-16 14:30N 25°59' W 080°07'3 6.3
2017-Nov-16 14:00N 26°02' W 080°07'4 7.8
2017-Nov-16 13:30N 26°06' W 080°07'1 2.1
2017-Nov-16 13:00N 26°07' W 080°06'0 0.0
2017-Nov-16 12:30N 26°07' W 080°06'0 0.0
2017-Nov-16 12:00N 26°07' W 080°06'0 0.0
2017-Nov-16 11:30N 26°07' W 080°06'0 0.0
2017-Nov-16 11:00N 26°07' W 080°06'0 0.0
2017-Nov-16 10:30N 26°07' W 080°06'0 0.0
2017-Nov-16 10:00N 26°07' W 080°06'0 0.0
2017-Nov-16 09:30N 26°07' W 080°06'0 0.0
2017-Nov-16 09:00N 26°07' W 080°06'0 0.0
2017-Nov-16 08:29N 26°07' W 080°06'0 0.0
2017-Nov-16 08:00N 26°07' W 080°06'0 0.0
2017-Nov-16 07:30N 26°07' W 080°06'0 0.0
2017-Nov-16 07:00N 26°07' W 080°06'0 0.0
2017-Nov-16 06:30N 26°07' W 080°06'0 0.0
2017-Nov-16 06:00N 26°07' W 080°06'0 0.0
2017-Nov-16 05:30N 26°07' W 080°06'0 0.0
2017-Nov-16 05:00N 26°07' W 080°06'0 0.0
2017-Nov-16 04:30N 26°07' W 080°06'0 0.0
2017-Nov-16 04:00N 26°07' W 080°06'0 0.0
2017-Nov-16 03:30N 26°07' W 080°06'0 0.0
2017-Nov-16 03:00N 26°07' W 080°06'0 0.0
2017-Nov-16 02:30N 26°07' W 080°06'0 0.0
2017-Nov-16 02:00N 26°07' W 080°06'0 0.0
2017-Nov-16 01:30N 26°07' W 080°06'0 0.7
2017-Nov-16 01:01N 26°07' W 080°07'3 5.6
2017-Nov-16 00:30N 26°10' W 080°06'4 7.2
2017-Nov-15 23:59N 26°14' W 080°06'3 5.7
2017-Nov-15 23:30N 26°16' W 080°05'4 6.9
2017-Nov-15 22:59N 26°20' W 080°05'3 6.5
2017-Nov-15 22:28N 26°23' W 080°04'9 6.8
2017-Nov-15 21:09N 26°32' W 080°03'2 8.1
2017-Nov-15 20:57N 26°34' W 080°03'1 1.5
2017-Nov-15 20:29N 26°35' W 080°03'0 0.0
2017-Nov-15 20:00N 26°35' W 080°03'2 4.3
2017-Nov-15 19:30N 26°37' W 080°03'4 7.7
2017-Nov-15 19:00N 26°41' W 080°03'3 5.5
2017-Nov-15 18:30N 26°43' W 080°03'3 6.1
2017-Nov-15 18:00N 26°46' W 080°03'0 0.6
2017-Nov-15 17:26N 26°47' W 080°03'0 0.0
2017-Nov-15 16:59N 26°47' W 080°03'0 0.6
2017-Nov-15 16:30N 26°46' W 080°03'1 1.2
2017-Nov-15 16:00N 26°46' W 080°03'0 0.0
2017-Nov-15 15:30N 26°46' W 080°03'0 0.0
2017-Nov-15 15:00N 26°46' W 080°03'3 5.0
2017-Nov-15 14:30N 26°43' W 080°03'1 1.3
2017-Nov-15 14:00N 26°43' W 080°03'0 0.0
2017-Nov-15 13:30N 26°43' W 080°03'0 0.0
2017-Nov-15 12:25N 26°43' W 080°03'0 0.0
2017-Nov-15 12:00N 26°43' W 080°03'0 0.0
2017-Nov-15 11:30N 26°43' W 080°03'0 0.0
2017-Nov-15 11:00N 26°43' W 080°03'0 0.0
2017-Nov-15 10:30N 26°43' W 080°03'0 0.0
2017-Nov-15 10:00N 26°43' W 080°03'0 0.0
2017-Nov-15 09:30N 26°43' W 080°03'0 0.0
2017-Nov-15 09:00N 26°43' W 080°03'0 0.0
2017-Nov-15 08:30N 26°43' W 080°03'0 0.0
2017-Nov-15 08:00N 26°43' W 080°03'0 0.0
2017-Nov-15 07:30N 26°43' W 080°03'0 0.0
2017-Nov-15 07:00N 26°43' W 080°03'0 0.0
2017-Nov-15 06:30N 26°43' W 080°03'0 0.0
2017-Nov-15 06:00N 26°43' W 080°03'0 0.0
2017-Nov-15 05:30N 26°43' W 080°03'0 0.0
2017-Nov-15 05:00N 26°43' W 080°03'0 0.0
2017-Nov-15 04:30N 26°43' W 080°03'0 0.0
2017-Nov-15 04:00N 26°43' W 080°03'0 0.0
2017-Nov-15 03:30N 26°43' W 080°03'0 0.0
2017-Nov-15 03:00N 26°43' W 080°03'0 0.0
2017-Nov-15 02:30N 26°43' W 080°03'0 0.0
2017-Nov-15 02:00N 26°43' W 080°03'0 0.0
2017-Nov-15 01:30N 26°43' W 080°03'0 0.0
2017-Nov-15 01:00N 26°43' W 080°03'0 0.0
2017-Nov-15 00:30N 26°43' W 080°03'0 0.0
2017-Nov-15 00:00N 26°43' W 080°03'0 0.0
2017-Nov-14 23:30N 26°43' W 080°03'0 0.0
2017-Nov-14 23:00N 26°43' W 080°03'0 0.0
2017-Nov-14 22:30N 26°43' W 080°03'0 0.0
2017-Nov-14 22:00N 26°43' W 080°03'0 0.0
2017-Nov-14 21:30N 26°43' W 080°03'0 0.3
2017-Nov-14 21:00N 26°43' W 080°03'0 0.2
2017-Nov-14 20:30N 26°42' W 080°03'3 6.1
2017-Nov-14 20:00N 26°39' W 080°03'3 7.0
2017-Nov-14 19:30N 26°36' W 080°03'5 7.0
2017-Nov-14 18:51N 26°31' W 080°03'2 5.7
2017-Nov-14 18:25N 26°29' W 080°04'2 5.6
2017-Nov-14 18:00N 26°27' W 080°04'3 6.6
2017-Nov-14 17:30N 26°23' W 080°04'3 5.2
2017-Nov-14 17:00N 26°21' W 080°04'0 0.0
2017-Nov-14 16:30N 26°21' W 080°04'0 0.0
2017-Nov-14 16:00N 26°21' W 080°04'0 0.3
2017-Nov-14 15:30N 26°21' W 080°05'3 6.3
2017-Nov-14 15:00N 26°17' W 080°05'3 5.1
2017-Nov-14 14:30N 26°15' W 080°05'3 5.9
2017-Nov-14 14:00N 26°12' W 080°06'3 5.9
2017-Nov-14 13:30N 26°09' W 080°06'2 4.6
2017-Nov-14 13:00N 26°07' W 080°07'0 0.0
2017-Nov-14 12:30N 26°07' W 080°07'0 0.0
2017-Nov-14 12:00N 26°07' W 080°07'0 0.0
2017-Nov-14 11:30N 26°07' W 080°07'0 0.0
2017-Nov-14 11:00N 26°07' W 080°07'0 0.0
2017-Nov-14 10:30N 26°07' W 080°07'0 0.0
2017-Nov-14 10:00N 26°07' W 080°07'0 0.0
2017-Nov-14 09:30N 26°07' W 080°07'0 0.0
2017-Nov-14 09:00N 26°07' W 080°07'0 0.0
2017-Nov-14 08:30N 26°07' W 080°07'0 0.0
2017-Nov-14 08:00N 26°07' W 080°07'0 0.0
2017-Nov-14 07:30N 26°07' W 080°07'0 0.0
2017-Nov-14 07:00N 26°07' W 080°07'0 0.0
2017-Nov-14 06:30N 26°07' W 080°07'0 0.0
2017-Nov-14 06:00N 26°07' W 080°07'0 0.0
2017-Nov-14 05:30N 26°07' W 080°07'0 0.0
2017-Nov-14 05:00N 26°07' W 080°07'0 0.0
2017-Nov-14 04:30N 26°07' W 080°07'0 0.0
2017-Nov-14 04:00N 26°07' W 080°07'0 0.0
2017-Nov-14 03:30N 26°07' W 080°07'0 0.0
2017-Nov-14 03:00N 26°07' W 080°07'0 0.0
2017-Nov-14 02:30N 26°07' W 080°07'0 0.0
2017-Nov-14 02:00N 26°07' W 080°07'0 0.0
2017-Nov-14 01:30N 26°07' W 080°07'0 0.0
2017-Nov-14 01:00N 26°07' W 080°07'0 0.0
2017-Nov-14 00:30N 26°07' W 080°07'0 0.0
2017-Nov-14 00:00N 26°07' W 080°07'0 0.0
2017-Nov-13 23:30N 26°07' W 080°07'0 0.0
2017-Nov-13 23:00N 26°07' W 080°07'1 2.7
2017-Nov-13 22:30N 26°06' W 080°07'2 4.4
2017-Nov-13 22:00N 26°03' W 080°07'  
2017-Nov-09 16:40N 25°46' W 080°09'0 0.0
2017-Nov-09 16:30N 25°46' W 080°09'0 0.1
2017-Nov-09 16:01N 25°46' W 080°09'2 4.5
2017-Nov-09 15:30N 25°46' W 080°11'2 3.4
2017-Nov-09 15:00N 25°44' W 080°11'0 0.0
2017-Nov-09 14:30N 25°44' W 080°11'1 1.0
2017-Nov-09 14:00N 25°44' W 080°11'1 2.0
2017-Nov-09 13:30N 25°45' W 080°11'2 3.7
2017-Nov-09 13:01N 25°46' W 080°10'1 2.1
2017-Nov-09 12:30N 25°46' W 080°09'0 0.0
2017-Nov-09 12:00N 25°46' W 080°09'  
Track history (hours):
 
Tides and Currents Weather Stations Pressure Air Temp Water Temp Dewpoint Dewpoint Depression Visibility Wind Speed Wind Dir Waves Ship Positions

CG Hudson

Last reported at 2017-Nov-16 18:04 UTC. Time now 2017-Nov-22 15:06 UTC.
Position N 25°46' W 080°09'.

Length 48 m; draft 2 m.

Type: Law enforcement. MMSI: 366999791.

Date/timePositionNaut miles runAvg speedWind from/ knotsBaromVisibWave heightAir tempDewpointWater temp
2017-Nov-16 18:04N 25°46' W 080°09'0 0.0
2017-Nov-16 18:00N 25°46' W 080°09'2 4.6
2017-Nov-16 17:30N 25°47' W 080°11'4 7.3
2017-Nov-16 17:00N 25°51' W 080°10'3 6.2
2017-Nov-16 16:30N 25°54' W 080°08'0 0.0
2017-Nov-16 16:00N 25°54' W 080°08'0 0.0
2017-Nov-16 15:30N 25°54' W 080°08'2 4.0
2017-Nov-16 15:00N 25°56' W 080°08'4 7.2
2017-Nov-16 14:30N 25°59' W 080°07'3 6.3
2017-Nov-16 14:00N 26°02' W 080°07'4 7.8
2017-Nov-16 13:30N 26°06' W 080°07'1 2.1
2017-Nov-16 13:00N 26°07' W 080°06'0 0.0
2017-Nov-16 12:30N 26°07' W 080°06'0 0.0
2017-Nov-16 12:00N 26°07' W 080°06'0 0.0
2017-Nov-16 11:30N 26°07' W 080°06'0 0.0
2017-Nov-16 11:00N 26°07' W 080°06'0 0.0
2017-Nov-16 10:30N 26°07' W 080°06'0 0.0
2017-Nov-16 10:00N 26°07' W 080°06'0 0.0
2017-Nov-16 09:30N 26°07' W 080°06'0 0.0
2017-Nov-16 09:00N 26°07' W 080°06'0 0.0
2017-Nov-16 08:29N 26°07' W 080°06'0 0.0
2017-Nov-16 08:00N 26°07' W 080°06'0 0.0
2017-Nov-16 07:30N 26°07' W 080°06'0 0.0
2017-Nov-16 07:00N 26°07' W 080°06'0 0.0
2017-Nov-16 06:30N 26°07' W 080°06'0 0.0
2017-Nov-16 06:00N 26°07' W 080°06'0 0.0
2017-Nov-16 05:30N 26°07' W 080°06'0 0.0
2017-Nov-16 05:00N 26°07' W 080°06'0 0.0
2017-Nov-16 04:30N 26°07' W 080°06'0 0.0
2017-Nov-16 04:00N 26°07' W 080°06'0 0.0
2017-Nov-16 03:30N 26°07' W 080°06'0 0.0
2017-Nov-16 03:00N 26°07' W 080°06'0 0.0
2017-Nov-16 02:30N 26°07' W 080°06'0 0.0
2017-Nov-16 02:00N 26°07' W 080°06'0 0.0
2017-Nov-16 01:30N 26°07' W 080°06'0 0.7
2017-Nov-16 01:01N 26°07' W 080°07'3 5.6
2017-Nov-16 00:30N 26°10' W 080°06'4 7.2
2017-Nov-15 23:59N 26°14' W 080°06'3 5.7
2017-Nov-15 23:30N 26°16' W 080°05'4 6.9
2017-Nov-15 22:59N 26°20' W 080°05'3 6.5
2017-Nov-15 22:28N 26°23' W 080°04'9 6.8
2017-Nov-15 21:09N 26°32' W 080°03'2 8.1
2017-Nov-15 20:57N 26°34' W 080°03'1 1.5
2017-Nov-15 20:29N 26°35' W 080°03'0 0.0
2017-Nov-15 20:00N 26°35' W 080°03'2 4.3
2017-Nov-15 19:30N 26°37' W 080°03'4 7.7
2017-Nov-15 19:00N 26°41' W 080°03'3 5.5
2017-Nov-15 18:30N 26°43' W 080°03'3 6.1
2017-Nov-15 18:00N 26°46' W 080°03'0 0.6
2017-Nov-15 17:26N 26°47' W 080°03'0 0.0
2017-Nov-15 16:59N 26°47' W 080°03'0 0.6
2017-Nov-15 16:30N 26°46' W 080°03'1 1.2
2017-Nov-15 16:00N 26°46' W 080°03'0 0.0
2017-Nov-15 15:30N 26°46' W 080°03'0 0.0
2017-Nov-15 15:00N 26°46' W 080°03'3 5.0
2017-Nov-15 14:30N 26°43' W 080°03'1 1.3
2017-Nov-15 14:00N 26°43' W 080°03'0 0.0
2017-Nov-15 13:30N 26°43' W 080°03'0 0.0
2017-Nov-15 12:25N 26°43' W 080°03'0 0.0
2017-Nov-15 12:00N 26°43' W 080°03'0 0.0
2017-Nov-15 11:30N 26°43' W 080°03'0 0.0
2017-Nov-15 11:00N 26°43' W 080°03'0 0.0
2017-Nov-15 10:30N 26°43' W 080°03'0 0.0
2017-Nov-15 10:00N 26°43' W 080°03'0 0.0
2017-Nov-15 09:30N 26°43' W 080°03'0 0.0
2017-Nov-15 09:00N 26°43' W 080°03'0 0.0
2017-Nov-15 08:30N 26°43' W 080°03'0 0.0
2017-Nov-15 08:00N 26°43' W 080°03'0 0.0
2017-Nov-15 07:30N 26°43' W 080°03'0 0.0
2017-Nov-15 07:00N 26°43' W 080°03'0 0.0
2017-Nov-15 06:30N 26°43' W 080°03'0 0.0
2017-Nov-15 06:00N 26°43' W 080°03'0 0.0
2017-Nov-15 05:30N 26°43' W 080°03'0 0.0
2017-Nov-15 05:00N 26°43' W 080°03'0 0.0
2017-Nov-15 04:30N 26°43' W 080°03'0 0.0
2017-Nov-15 04:00N 26°43' W 080°03'0 0.0
2017-Nov-15 03:30N 26°43' W 080°03'0 0.0
2017-Nov-15 03:00N 26°43' W 080°03'0 0.0
2017-Nov-15 02:30N 26°43' W 080°03'0 0.0
2017-Nov-15 02:00N 26°43' W 080°03'0 0.0
2017-Nov-15 01:30N 26°43' W 080°03'0 0.0
2017-Nov-15 01:00N 26°43' W 080°03'0 0.0
2017-Nov-15 00:30N 26°43' W 080°03'0 0.0
2017-Nov-15 00:00N 26°43' W 080°03'0 0.0
2017-Nov-14 23:30N 26°43' W 080°03'0 0.0
2017-Nov-14 23:00N 26°43' W 080°03'0 0.0
2017-Nov-14 22:30N 26°43' W 080°03'0 0.0
2017-Nov-14 22:00N 26°43' W 080°03'0 0.0
2017-Nov-14 21:30N 26°43' W 080°03'0 0.3
2017-Nov-14 21:00N 26°43' W 080°03'0 0.2
2017-Nov-14 20:30N 26°42' W 080°03'3 6.1
2017-Nov-14 20:00N 26°39' W 080°03'3 7.0
2017-Nov-14 19:30N 26°36' W 080°03'5 7.0
2017-Nov-14 18:51N 26°31' W 080°03'2 5.7
2017-Nov-14 18:25N 26°29' W 080°04'2 5.6
2017-Nov-14 18:00N 26°27' W 080°04'3 6.6
2017-Nov-14 17:30N 26°23' W 080°04'3 5.2
2017-Nov-14 17:00N 26°21' W 080°04'0 0.0
2017-Nov-14 16:30N 26°21' W 080°04'0 0.0
2017-Nov-14 16:00N 26°21' W 080°04'0 0.3
2017-Nov-14 15:30N 26°21' W 080°05'3 6.3
2017-Nov-14 15:00N 26°17' W 080°05'3 5.1
2017-Nov-14 14:30N 26°15' W 080°05'3 5.9
2017-Nov-14 14:00N 26°12' W 080°06'3 5.9
2017-Nov-14 13:30N 26°09' W 080°06'2 4.6
2017-Nov-14 13:00N 26°07' W 080°07'0 0.0
2017-Nov-14 12:30N 26°07' W 080°07'0 0.0
2017-Nov-14 12:00N 26°07' W 080°07'0 0.0
2017-Nov-14 11:30N 26°07' W 080°07'0 0.0
2017-Nov-14 11:00N 26°07' W 080°07'0 0.0
2017-Nov-14 10:30N 26°07' W 080°07'0 0.0
2017-Nov-14 10:00N 26°07' W 080°07'0 0.0
2017-Nov-14 09:30N 26°07' W 080°07'0 0.0
2017-Nov-14 09:00N 26°07' W 080°07'0 0.0
2017-Nov-14 08:30N 26°07' W 080°07'0 0.0
2017-Nov-14 08:00N 26°07' W 080°07'0 0.0
2017-Nov-14 07:30N 26°07' W 080°07'0 0.0
2017-Nov-14 07:00N 26°07' W 080°07'0 0.0
2017-Nov-14 06:30N 26°07' W 080°07'0 0.0
2017-Nov-14 06:00N 26°07' W 080°07'0 0.0
2017-Nov-14 05:30N 26°07' W 080°07'0 0.0
2017-Nov-14 05:00N 26°07' W 080°07'0 0.0
2017-Nov-14 04:30N 26°07' W 080°07'0 0.0
2017-Nov-14 04:00N 26°07' W 080°07'0 0.0
2017-Nov-14 03:30N 26°07' W 080°07'0 0.0
2017-Nov-14 03:00N 26°07' W 080°07'0 0.0
2017-Nov-14 02:30N 26°07' W 080°07'0 0.0
2017-Nov-14 02:00N 26°07' W 080°07'0 0.0
2017-Nov-14 01:30N 26°07' W 080°07'0 0.0
2017-Nov-14 01:00N 26°07' W 080°07'0 0.0
2017-Nov-14 00:30N 26°07' W 080°07'0 0.0
2017-Nov-14 00:00N 26°07' W 080°07'0 0.0
2017-Nov-13 23:30N 26°07' W 080°07'0 0.0
2017-Nov-13 23:00N 26°07' W 080°07'1 2.7
2017-Nov-13 22:30N 26°06' W 080°07'2 4.4
2017-Nov-13 22:00N 26°03' W 080°07'  
2017-Nov-09 16:40N 25°46' W 080°09'0 0.0
2017-Nov-09 16:30N 25°46' W 080°09'0 0.1
2017-Nov-09 16:01N 25°46' W 080°09'2 4.5
2017-Nov-09 15:30N 25°46' W 080°11'2 3.4
2017-Nov-09 15:00N 25°44' W 080°11'0 0.0
2017-Nov-09 14:30N 25°44' W 080°11'1 1.0
2017-Nov-09 14:00N 25°44' W 080°11'1 2.0
2017-Nov-09 13:30N 25°45' W 080°11'2 3.7
2017-Nov-09 13:01N 25°46' W 080°10'1 2.1
2017-Nov-09 12:30N 25°46' W 080°09'0 0.0
2017-Nov-09 12:00N 25°46' W 080°09'  

Dump ship's entire track history